Time;durP1;ratioP1;P1;durP2;ratioP2;P2;SDS_P1;SDS_P2;PMS_P1;PMS_P2;Temp;Humidity;BMP_temperature;BMP_pressure;BME280_temperature;BME280_humidity;BME280_pressure;Samples;Min_cycle;Max_cycle;Signal;HPM_P1;HPM_P2
2021/01/08 00:02:05;;;;;;;32.87;17.27;;;;;;;6.50;75.49;94186.94;5071312;28;20178;-74
2021/01/08 00:04:31;;;;;;;32.10;17.90;;;;;;;6.39;75.98;94195.69;5071369;28;20205;-76
2021/01/08 00:06:56;;;;;;;31.40;17.27;;;;;;;6.49;75.96;94185.41;5071062;28;20573;-76
2021/01/08 00:09:22;;;;;;;33.07;17.27;;;;;;;6.41;76.20;94188.97;5071283;28;20175;-77
2021/01/08 00:11:52;;;;;;;31.03;17.47;;;;;;;6.30;76.13;94203.78;5071020;28;20229;-74
2021/01/08 00:14:18;;;;;;;31.67;16.50;;;;;;;6.35;76.20;94193.72;5071031;28;20171;-75
2021/01/08 00:16:43;;;;;;;32.23;17.00;;;;;;;6.37;76.28;94182.78;5070780;28;20955;-74
2021/01/08 00:19:13;;;;;;;29.07;15.57;;;;;;;6.45;76.03;94184.53;5071173;28;20206;-74
2021/01/08 00:21:44;;;;;;;26.80;14.83;;;;;;;6.52;75.11;94190.06;5070790;28;20176;-75
2021/01/08 00:24:13;;;;;;;31.50;16.70;;;;;;;6.29;76.08;94175.75;5071057;28;20425;-76
2021/01/08 00:26:39;;;;;;;28.63;16.83;;;;;;;6.40;75.78;94170.72;5070965;28;20421;-77
2021/01/08 00:29:05;;;;;;;25.10;15.33;;;;;;;6.56;75.37;94176.88;5070720;28;20986;-75
2021/01/08 00:31:41;;;;;;;28.27;14.47;;;;;;;6.36;75.95;94171.41;5070792;28;20445;-74
2021/01/08 00:34:07;;;;;;;25.40;15.27;;;;;;;6.02;77.86;94172.69;5070956;28;20482;-76
2021/01/08 00:36:33;;;;;;;28.30;16.27;;;;;;;6.15;77.14;94175.31;5074499;28;20888;-76
2021/01/08 00:38:59;;;;;;;31.67;14.90;;;;;;;6.26;76.80;94181.69;5074705;28;20474;-74
2021/01/08 00:41:33;;;;;;;26.30;14.13;;;;;;;6.47;75.49;94177.03;5074511;28;20175;-75
2021/01/08 00:43:59;;;;;;;31.57;16.17;;;;;;;6.40;75.97;94176.03;5074746;28;20759;-75
2021/01/08 00:46:51;;;;;;;30.93;15.83;;;;;;;6.41;76.72;94173.06;5074276;28;20412;-76
2021/01/08 00:49:17;;;;;;;23.50;13.50;;;;;;;6.28;77.03;94187.44;5071884;28;21012;-76
2021/01/08 00:51:42;;;;;;;31.17;15.33;;;;;;;6.36;76.25;94178.59;5074484;28;20425;-75
2021/01/08 00:54:08;;;;;;;28.97;14.93;;;;;;;6.21;76.73;94179.28;5074437;28;20257;-74
2021/01/08 00:56:34;;;;;;;32.47;15.43;;;;;;;6.13;78.04;94174.88;5074219;28;20199;-76
2021/01/08 00:58:59;;;;;;;26.63;14.63;;;;;;;6.22;76.57;94170.22;5075019;28;20175;-77
2021/01/08 01:01:25;;;;;;;26.93;14.97;;;;;;;6.21;76.19;94161.47;5074363;28;20202;-76
2021/01/08 01:03:50;;;;;;;24.83;15.13;;;;;;;6.18;76.22;94177.31;5074300;28;20178;-77
2021/01/08 01:06:26;;;;;;;30.30;16.37;;;;;;;6.00;77.54;94169.56;5074468;28;20202;-77
2021/01/08 01:08:52;;;;;;;26.53;14.33;;;;;;;5.79;78.89;94163.63;5074093;28;20174;-77
2021/01/08 01:11:18;;;;;;;26.77;13.87;;;;;;;6.10;77.84;94182.38;5074274;28;20467;-76
2021/01/08 01:13:47;;;;;;;31.97;15.23;;;;;;;5.86;78.38;94171.78;5074075;28;20166;-74
2021/01/08 01:16:13;;;;;;;27.63;14.80;;;;;;;6.12;77.87;94173.31;5074090;28;20788;-76
2021/01/08 01:18:39;;;;;;;27.63;15.17;;;;;;;6.16;76.97;94167.00;5073920;28;20421;-76
2021/01/08 01:21:04;;;;;;;27.27;14.00;;;;;;;6.03;78.24;94168.16;5074251;28;20417;-76
2021/01/08 01:23:30;;;;;;;32.40;16.53;;;;;;;5.76;79.71;94157.09;5073860;28;20224;-77
2021/01/08 01:25:55;;;;;;;27.60;14.43;;;;;;;6.12;78.21;94168.00;5073968;28;20661;-76
2021/01/08 01:28:21;;;;;;;31.07;16.10;;;;;;;5.94;78.87;94173.56;5073637;28;20206;-74
2021/01/08 01:30:46;;;;;;;29.03;15.10;;;;;;;6.24;76.92;94166.13;5073883;28;20171;-76
2021/01/08 01:33:12;;;;;;;29.07;15.63;;;;;;;6.27;76.51;94165.44;5074038;28;20175;-77
2021/01/08 01:35:37;;;;;;;24.57;15.13;;;;;;;5.81;78.44;94145.50;5073020;28;20171;-76
2021/01/08 01:38:02;;;;;;;30.87;16.70;;;;;;;5.88;78.25;94135.09;5073181;28;20618;-77
2021/01/08 01:40:28;;;;;;;29.47;15.27;;;;;;;6.16;77.67;94155.66;5073086;28;20174;-76
2021/01/08 01:42:54;;;;;;;32.87;16.97;;;;;;;6.13;77.80;94133.25;5073575;28;20178;-77
2021/01/08 01:45:20;;;;;;;31.20;16.67;;;;;;;6.18;78.00;94137.53;5072679;28;20160;-76
2021/01/08 01:47:45;;;;;;;30.80;16.37;;;;;;;6.09;78.07;94143.72;5073128;28;20171;-75
2021/01/08 01:50:11;;;;;;;31.67;15.90;;;;;;;6.12;77.79;94147.59;5055677;28;20206;-76
2021/01/08 01:52:37;;;;;;;30.60;16.17;;;;;;;6.06;77.77;94152.38;5073376;28;20167;-74
2021/01/08 01:55:03;;;;;;;27.60;15.47;;;;;;;6.01;78.34;94149.16;5073139;28;20254;-75
2021/01/08 01:57:29;;;;;;;28.07;16.33;;;;;;;6.24;76.62;94138.84;5073414;28;20207;-74
2021/01/08 01:59:55;;;;;;;25.87;13.70;;;;;;;6.13;77.47;94156.31;5073312;28;20943;-75
2021/01/08 02:02:33;;;;;;;27.40;15.73;;;;;;;5.91;78.58;94144.28;5072853;28;20385;-75
2021/01/08 02:05:01;;;;;;;26.70;14.73;;;;;;;6.19;77.83;94139.84;5039285;28;20623;-75
2021/01/08 02:07:26;;;;;;;25.13;15.13;;;;;;;6.14;78.12;94136.66;5055267;28;20425;-77
2021/01/08 02:09:52;;;;;;;26.13;15.00;;;;;;;6.18;77.92;94140.19;5038629;28;20877;-76
2021/01/08 02:12:17;;;;;;;23.73;13.60;;;;;;;6.08;77.87;94138.78;5055097;28;20633;-76
2021/01/08 02:14:43;;;;;;;26.33;15.23;;;;;;;6.00;78.40;94134.34;5055104;28;20186;-73
2021/01/08 02:17:09;;;;;;;26.57;14.27;;;;;;;5.80;78.42;94083.03;5054638;28;20207;-72
2021/01/08 02:19:38;;;;;;;26.67;14.40;;;;;;;6.18;77.38;94129.59;5055016;28;20641;-74
2021/01/08 02:22:42;;;;;;;25.87;14.37;;;;;;;5.98;78.87;94125.97;5055026;28;20175;-74
2021/01/08 02:25:24;;;;;;;28.07;14.67;;;;;;;6.31;77.15;94126.56;5064062;28;21012;-74
2021/01/08 02:28:00;;;;;;;26.40;14.80;;;;;;;5.96;78.69;94125.53;5039288;28;20541;-74
2021/01/08 02:30:25;;;;;;;22.87;13.33;;;;;;;6.01;77.97;94104.88;5055384;28;20548;-74
2021/01/08 02:32:53;;;;;;;22.50;12.67;;;;;;;6.19;77.60;94100.09;5054642;28;20421;-74
2021/01/08 02:35:18;;;;;;;23.10;12.27;;;;;;;6.05;78.19;94087.19;5054530;28;20174;-76
2021/01/08 02:37:44;;;;;;;24.10;12.50;;;;;;;6.06;77.50;94094.06;5038019;28;20472;-77
2021/01/08 02:40:13;;;;;;;19.93;11.03;;;;;;;5.91;77.95;94084.13;5054848;28;20530;-77
2021/01/08 02:42:39;;;;;;;20.47;12.03;;;;;;;5.93;78.74;94078.50;5072773;28;20194;-78
2021/01/08 02:45:06;;;;;;;22.53;12.40;;;;;;;6.12;77.99;94075.25;5038236;28;20413;-78
2021/01/08 02:47:31;;;;;;;20.77;11.63;;;;;;;5.88;77.83;94074.16;5072266;28;20849;-78
2021/01/08 02:49:57;;;;;;;15.73;9.57;;;;;;;5.76;78.46;94072.31;5072475;28;20414;-77
2021/01/08 02:52:22;;;;;;;19.37;9.87;;;;;;;5.81;78.66;94072.09;5072208;28;20183;-75
2021/01/08 02:54:48;;;;;;;17.67;10.10;;;;;;;6.05;77.67;94071.28;5072882;28;20198;-76
2021/01/08 02:57:13;;;;;;;18.13;9.77;;;;;;;6.08;76.57;94060.03;5037790;28;20207;-75
2021/01/08 02:59:38;;;;;;;17.40;9.70;;;;;;;6.10;77.18;94067.63;5070160;28;20607;-76
2021/01/08 03:02:04;;;;;;;13.73;8.60;;;;;;;5.98;77.50;94067.66;5054262;28;20171;-77
2021/01/08 03:04:30;;;;;;;17.53;9.50;;;;;;;6.08;77.81;94081.22;5054320;28;20174;-77
2021/01/08 03:06:55;;;;;;;18.20;9.83;;;;;;;6.09;77.59;94072.16;5070992;28;20186;-77
2021/01/08 03:09:21;;;;;;;18.60;9.63;;;;;;;6.29;76.51;94059.84;5053983;28;20174;-77
2021/01/08 03:11:53;;;;;;;16.87;9.37;;;;;;;6.09;77.73;94071.41;5054779;28;20198;-77
2021/01/08 03:14:19;;;;;;;19.47;10.90;;;;;;;6.09;77.42;94053.63;5054018;28;20649;-76
2021/01/08 03:16:45;;;;;;;17.23;10.03;;;;;;;6.12;77.38;94064.63;5071840;28;20475;-76
2021/01/08 03:19:10;;;;;;;20.00;9.67;;;;;;;6.05;78.34;94068.63;5071577;28;20508;-77
2021/01/08 03:21:35;;;;;;;20.77;11.27;;;;;;;6.20;76.61;94071.69;5072032;28;20534;-76
2021/01/08 03:24:01;;;;;;;23.53;12.53;;;;;;;6.33;76.25;94055.41;5071763;28;20246;-76
2021/01/08 03:26:27;;;;;;;23.10;12.80;;;;;;;6.09;77.38;94064.22;5072178;28;20266;-77
2021/01/08 03:28:52;;;;;;;21.50;12.50;;;;;;;6.17;77.27;94041.31;5071793;28;20215;-76
2021/01/08 03:31:18;;;;;;;23.00;12.77;;;;;;;6.16;77.56;94049.63;5071778;28;20182;-73
2021/01/08 03:33:43;;;;;;;19.43;11.03;;;;;;;6.24;76.48;94038.88;5071472;28;20611;-76
2021/01/08 03:36:09;;;;;;;19.40;10.93;;;;;;;6.36;76.02;94041.47;5053457;28;20613;-76
2021/01/08 03:38:34;;;;;;;21.23;12.37;;;;;;;6.30;76.25;94052.66;5070502;28;20270;-72
2021/01/08 03:41:00;;;;;;;19.70;11.30;;;;;;;6.36;76.16;94035.41;5044637;28;20230;-74
2021/01/08 03:43:25;;;;;;;20.20;11.10;;;;;;;6.38;76.21;94035.81;5071648;28;20562;-73
2021/01/08 03:45:51;;;;;;;19.77;11.03;;;;;;;6.51;75.75;94033.88;5071317;28;20241;-74
2021/01/08 03:48:16;;;;;;;23.67;12.07;;;;;;;6.51;76.04;94020.63;5071314;28;20171;-71
2021/01/08 03:50:42;;;;;;;22.00;12.57;;;;;;;6.34;76.37;94011.88;5071101;28;20179;-74
2021/01/08 03:53:07;;;;;;;22.73;12.50;;;;;;;6.18;77.08;94018.25;5071302;28;20182;-76
2021/01/08 03:55:33;;;;;;;22.50;12.33;;;;;;;5.88;78.35;94007.94;5071314;28;20190;-79
2021/01/08 03:57:58;;;;;;;23.97;13.23;;;;;;;6.18;77.92;94010.31;5071462;28;20321;-79
2021/01/08 04:00:24;;;;;;;25.67;14.23;;;;;;;6.13;78.08;94002.59;5071406;28;20175;-77
2021/01/08 04:02:49;;;;;;;26.07;13.30;;;;;;;6.29;77.48;94000.75;5071146;28;20179;-77
2021/01/08 04:05:15;;;;;;;26.30;14.33;;;;;;;6.02;78.13;94003.06;5071301;28;20171;-77
2021/01/08 04:07:40;;;;;;;27.73;14.40;;;;;;;6.03;78.88;94009.13;5070929;28;20193;-76
2021/01/08 04:10:07;;;;;;;26.57;13.93;;;;;;;6.22;77.21;93987.28;5072889;28;20193;-77
2021/01/08 04:12:32;;;;;;;26.17;14.20;;;;;;;6.38;77.25;93995.28;5057406;28;20550;-78
2021/01/08 04:14:58;;;;;;;27.93;14.83;;;;;;;6.56;76.13;93977.94;5075176;28;20425;-78
2021/01/08 04:17:23;;;;;;;24.83;14.70;;;;;;;6.44;76.91;93967.41;5073190;28;20199;-73
2021/01/08 04:19:49;;;;;;;27.90;14.57;;;;;;;6.34;77.66;93981.94;5071181;28;20549;-78
2021/01/08 04:22:14;;;;;;;26.03;14.67;;;;;;;6.31;77.91;93966.72;5090094;28;20179;-73
2021/01/08 04:24:40;;;;;;;32.07;15.03;;;;;;;6.24;77.11;93967.31;5082195;28;20659;-75
2021/01/08 04:27:05;;;;;;;28.63;16.07;;;;;;;6.13;77.85;93963.59;5095415;28;20251;-76
2021/01/08 04:29:31;;;;;;;28.80;15.23;;;;;;;6.31;77.37;93950.81;5071411;28;20211;-75
2021/01/08 04:31:56;;;;;;;24.47;13.67;;;;;;;6.46;76.61;93951.94;5055163;28;20168;-77
2021/01/08 04:34:22;;;;;;;28.90;13.80;;;;;;;6.19;77.98;93953.53;5074927;28;20634;-74
2021/01/08 04:36:47;;;;;;;24.87;14.03;;;;;;;6.40;76.91;93947.97;5074731;28;20187;-78
2021/01/08 04:39:13;;;;;;;23.67;13.87;;;;;;;6.40;76.71;93929.41;5074508;28;20273;-78
2021/01/08 04:41:38;;;;;;;27.37;15.80;;;;;;;6.04;78.24;93929.28;5074716;28;20167;-74
2021/01/08 04:44:05;;;;;;;26.23;15.00;;;;;;;6.22;78.51;93936.94;5056533;28;20175;-77
2021/01/08 04:46:32;;;;;;;28.63;16.00;;;;;;;6.16;77.33;93935.63;5074510;28;20181;-79
2021/01/08 04:49:05;;;;;;;27.97;15.37;;;;;;;6.38;76.80;93944.91;5074312;28;20845;-77
2021/01/08 04:51:30;;;;;;;23.60;13.70;;;;;;;6.41;76.90;93936.28;5074814;28;20433;-78
2021/01/08 04:53:56;;;;;;;24.27;14.27;;;;;;;6.42;77.02;93925.34;5074542;28;20416;-76
2021/01/08 04:56:25;;;;;;;21.33;12.80;;;;;;;6.42;76.93;93925.34;5074302;28;20200;-77
2021/01/08 04:58:50;;;;;;;26.80;15.03;;;;;;;6.48;77.27;93913.34;5057353;28;20660;-78
2021/01/08 05:01:16;;;;;;;24.03;14.23;;;;;;;6.20;78.26;93908.13;5040015;28;20471;-78
2021/01/08 05:03:42;;;;;;;23.73;13.57;;;;;;;6.35;78.08;93922.50;5074660;28;20167;-78
2021/01/08 05:06:07;;;;;;;28.33;15.27;;;;;;;6.07;78.58;93923.31;5056962;28;20421;-76
2021/01/08 05:08:33;;;;;;;26.43;14.67;;;;;;;6.13;78.12;93912.47;5074606;28;20560;-77
2021/01/08 05:10:58;;;;;;;24.80;15.10;;;;;;;6.16;78.17;93935.63;5074306;28;20178;-78
2021/01/08 05:13:32;;;;;;;27.80;14.77;;;;;;;6.31;77.95;93919.00;5040022;28;20570;-78
2021/01/08 05:16:00;;;;;;;25.00;13.37;;;;;;;6.06;78.78;93935.03;5074235;28;20268;-78
2021/01/08 05:18:26;;;;;;;25.07;13.57;;;;;;;6.32;78.28;93929.25;5056540;28;20990;-77
2021/01/08 05:20:51;;;;;;;25.10;14.63;;;;;;;6.08;78.67;93919.56;5039121;28;20451;-78
2021/01/08 05:23:18;;;;;;;23.97;14.20;;;;;;;6.36;77.89;93922.16;5074111;28;20167;-77
2021/01/08 05:25:47;;;;;;;24.43;15.13;;;;;;;6.03;79.68;93934.94;5074143;28;20630;-79
2021/01/08 05:28:16;;;;;;;24.70;14.07;;;;;;;6.17;79.00;93923.91;5073738;28;21034;-78
2021/01/08 05:30:42;;;;;;;24.13;13.10;;;;;;;6.19;78.46;93914.53;5074265;28;20511;-77
2021/01/08 05:33:07;;;;;;;26.83;14.13;;;;;;;6.15;78.21;93910.25;5074082;28;20420;-77
2021/01/08 05:35:33;;;;;;;23.97;13.80;;;;;;;6.36;77.59;93922.16;5074182;28;20179;-77
2021/01/08 05:38:03;;;;;;;21.77;13.03;;;;;;;6.30;78.03;93891.72;5055825;28;20285;-77
2021/01/08 05:40:29;;;;;;;22.63;12.40;;;;;;;6.44;77.27;93909.06;5074484;28;20642;-78
2021/01/08 05:42:58;;;;;;;25.13;14.87;;;;;;;6.10;78.58;93919.97;5073718;28;20504;-78
2021/01/08 05:45:25;;;;;;;24.77;13.83;;;;;;;6.28;77.99;93911.72;5073933;28;20167;-77
2021/01/08 05:47:51;;;;;;;28.53;14.33;;;;;;;6.18;78.41;93920.19;5073820;28;20487;-77
2021/01/08 05:50:18;;;;;;;20.50;12.10;;;;;;;5.96;78.66;93916.97;5073784;28;20441;-77
2021/01/08 05:52:44;;;;;;;24.93;13.57;;;;;;;5.83;77.88;93907.50;5073628;28;20842;-78
2021/01/08 05:55:11;;;;;;;23.17;14.13;;;;;;;6.06;78.53;93923.63;5056079;28;20425;-77
2021/01/08 05:57:37;;;;;;;26.47;14.13;;;;;;;5.98;78.60;93908.69;5056167;28;20214;-77
2021/01/08 06:00:04;;;;;;;25.27;13.70;;;;;;;6.21;76.70;93895.63;5073469;28;20428;-77
2021/01/08 06:02:31;;;;;;;24.50;13.70;;;;;;;6.15;77.95;93904.94;5073394;28;20171;-77
2021/01/08 06:04:58;;;;;;;24.73;13.73;;;;;;;5.88;79.18;93890.59;5073336;28;20424;-77
2021/01/08 06:07:23;;;;;;;25.77;14.10;;;;;;;5.97;79.34;93888.59;5073365;28;20953;-77
2021/01/08 06:09:49;;;;;;;21.07;13.03;;;;;;;6.10;78.71;93898.78;5038731;28;20449;-77
2021/01/08 06:12:15;;;;;;;29.17;14.20;;;;;;;5.94;79.48;93913.88;5073185;28;20254;-78
2021/01/08 06:14:40;;;;;;;25.60;14.47;;;;;;;5.95;79.00;93898.75;5038233;28;20499;-77
2021/01/08 06:17:06;;;;;;;24.03;13.73;;;;;;;6.14;78.54;93892.81;5038670;28;20211;-78
2021/01/08 06:19:31;;;;;;;24.53;15.20;;;;;;;6.02;78.47;93896.31;5054907;28;20620;-76
2021/01/08 06:21:57;;;;;;;25.07;14.20;;;;;;;6.02;79.56;93904.25;5055005;28;20183;-77
2021/01/08 06:24:24;;;;;;;23.10;13.57;;;;;;;6.09;79.27;93889.28;5072936;28;20776;-77
2021/01/08 06:26:50;;;;;;;24.07;13.50;;;;;;;6.22;77.96;93879.38;5072965;28;20206;-78
2021/01/08 06:29:20;;;;;;;22.03;12.87;;;;;;;6.43;77.37;93873.06;5073068;28;21006;-78
2021/01/08 06:31:56;;;;;;;22.27;13.13;;;;;;;6.33;77.89;93885.72;5072301;28;20254;-79
2021/01/08 06:34:31;;;;;;;25.20;13.97;;;;;;;6.19;78.29;93884.59;5072424;28;20425;-76
2021/01/08 06:37:06;;;;;;;28.10;14.20;;;;;;;6.32;78.92;93889.47;5072511;28;20464;-78
2021/01/08 06:39:35;;;;;;;22.27;12.90;;;;;;;6.42;77.75;93879.47;5072175;28;20439;-77
2021/01/08 06:42:02;;;;;;;21.13;12.10;;;;;;;6.20;77.78;93899.41;5072449;28;20959;-78
2021/01/08 06:44:29;;;;;;;23.87;13.87;;;;;;;6.02;78.41;93886.47;5072321;28;20428;-78
2021/01/08 06:46:54;;;;;;;23.20;12.67;;;;;;;6.08;79.27;93897.59;5073038;28;20529;-78
2021/01/08 06:49:20;;;;;;;21.50;13.57;;;;;;;6.29;78.62;93890.19;5054282;28;20479;-79
2021/01/08 06:51:45;;;;;;;24.33;13.53;;;;;;;6.27;78.49;93912.81;5071821;28;20171;-78
2021/01/08 06:54:11;;;;;;;24.43;12.93;;;;;;;6.12;78.36;93893.16;5072126;28;20248;-78
2021/01/08 06:56:38;;;;;;;20.47;11.20;;;;;;;6.08;77.28;93901.00;5071906;28;20206;-79
2021/01/08 06:59:08;;;;;;;20.07;11.27;;;;;;;6.06;77.94;93899.78;5072062;28;20928;-78
2021/01/08 07:01:37;;;;;;;22.93;12.80;;;;;;;6.47;77.79;93903.09;5072006;28;20441;-77
2021/01/08 07:04:04;;;;;;;25.37;13.93;;;;;;;6.35;77.83;93894.13;5054546;28;20966;-78
2021/01/08 07:06:33;;;;;;;23.27;13.30;;;;;;;6.46;76.81;93897.03;5037338;28;20499;-77
2021/01/08 07:08:59;;;;;;;21.70;12.03;;;;;;;6.57;77.67;93892.75;5054107;28;20429;-78
2021/01/08 07:11:25;;;;;;;24.87;12.73;;;;;;;6.38;78.39;93911.22;5053913;28;20453;-76
2021/01/08 07:13:52;;;;;;;25.13;13.37;;;;;;;6.46;77.89;93912.94;5054006;28;20179;-77
2021/01/08 07:16:20;;;;;;;22.70;13.70;;;;;;;6.22;79.08;93915.72;5071488;28;21002;-76
2021/01/08 07:18:46;;;;;;;26.37;15.33;;;;;;;6.38;78.97;93905.91;5072526;28;20813;-77
2021/01/08 07:21:22;;;;;;;27.73;15.63;;;;;;;6.40;79.36;93921.47;5071905;28;20429;-78
2021/01/08 07:23:47;;;;;;;25.23;14.57;;;;;;;6.54;77.91;93908.56;5071785;28;20424;-77
2021/01/08 07:26:13;;;;;;;29.47;16.90;;;;;;;6.71;77.77;93904.78;5054063;28;20779;-78
2021/01/08 07:28:38;;;;;;;31.77;16.70;;;;;;;6.68;77.12;93900.94;5036694;28;20336;-77
2021/01/08 07:31:10;;;;;;;29.40;16.73;;;;;;;6.68;77.25;93900.16;5071551;28;20320;-76
2021/01/08 07:33:44;;;;;;;29.90;16.97;;;;;;;6.54;78.02;93897.97;5071451;28;20701;-77
2021/01/08 07:36:21;;;;;;;38.07;17.93;;;;;;;6.43;78.59;93889.75;5055286;28;20498;-77
2021/01/08 07:38:47;;;;;;;33.30;18.20;;;;;;;6.62;78.58;93873.13;5053576;28;20440;-77
2021/01/08 07:41:12;;;;;;;32.77;16.97;;;;;;;6.34;79.96;93881.19;5071565;28;20773;-77
2021/01/08 07:43:37;;;;;;;31.77;17.27;;;;;;;6.40;78.90;93876.38;5053367;28;20167;-76
2021/01/08 07:46:03;;;;;;;30.87;17.10;;;;;;;6.59;78.31;93861.34;5070850;28;20163;-78
2021/01/08 07:48:38;;;;;;;38.13;18.13;;;;;;;6.55;78.88;93868.44;5071414;28;20531;-78
2021/01/08 07:51:13;;;;;;;38.43;19.87;;;;;;;6.35;78.96;93864.94;5072205;28;20221;-78
2021/01/08 07:53:47;;;;;;;33.07;17.57;;;;;;;6.50;79.47;93859.97;5071758;28;20998;-78
2021/01/08 07:56:25;;;;;;;39.60;19.47;;;;;;;6.65;79.37;93885.72;5071380;28;20421;-77
2021/01/08 07:59:00;;;;;;;38.10;19.30;;;;;;;6.46;79.52;93872.38;5071371;28;20421;-78
2021/01/08 08:01:26;;;;;;;40.57;18.87;;;;;;;6.55;79.51;93849.88;5071387;28;20435;-77
2021/01/08 08:03:57;;;;;;;36.80;19.70;;;;;;;6.51;80.08;93853.53;5070979;28;20433;-78
2021/01/08 08:06:22;;;;;;;35.23;19.73;;;;;;;6.35;79.64;93819.88;5071278;28;20495;-79
2021/01/08 08:08:48;;;;;;;37.50;20.23;;;;;;;6.60;79.94;93828.38;5037386;28;20421;-78
2021/01/08 08:11:16;;;;;;;35.47;19.07;;;;;;;6.47;80.87;93839.44;5053244;28;20171;-78
2021/01/08 08:13:43;;;;;;;40.17;20.37;;;;;;;6.85;78.93;93815.69;5071119;28;20232;-78
2021/01/08 08:16:08;;;;;;;41.43;20.40;;;;;;;6.73;80.13;93841.53;5053490;28;20425;-78
2021/01/08 08:18:34;;;;;;;37.67;19.47;;;;;;;6.94;79.97;93822.66;5071046;28;20522;-79
2021/01/08 08:21:09;;;;;;;40.93;20.23;;;;;;;6.82;79.39;93828.84;5036606;28;20187;-79
2021/01/08 08:23:35;;;;;;;42.93;21.23;;;;;;;6.99;78.65;93843.63;5070756;28;20183;-77
2021/01/08 08:26:00;;;;;;;44.00;21.67;;;;;;;6.85;80.56;93817.56;5071844;28;20485;-78
2021/01/08 08:28:26;;;;;;;46.27;21.70;;;;;;;6.71;81.06;93841.13;5070740;28;20245;-77
2021/01/08 08:30:52;;;;;;;43.33;20.67;;;;;;;6.57;81.33;93837.03;5071112;28;20171;-78
2021/01/08 08:33:20;;;;;;;40.43;19.97;;;;;;;6.92;80.58;93814.28;5070860;28;20179;-78
2021/01/08 08:35:46;;;;;;;41.67;19.37;;;;;;;6.68;79.88;93780.78;5053689;28;20187;-78
2021/01/08 08:38:12;;;;;;;33.50;18.73;;;;;;;7.11;79.61;93819.59;5070967;28;20464;-79
2021/01/08 08:40:37;;;;;;;42.53;19.87;;;;;;;7.18;78.42;93806.47;5071193;28;20182;-77
2021/01/08 08:43:03;;;;;;;36.60;19.00;;;;;;;6.97;79.69;93832.59;5071780;28;20170;-77
2021/01/08 08:45:33;;;;;;;33.23;18.83;;;;;;;7.15;79.62;93815.16;5070973;28;20163;-78
2021/01/08 08:48:05;;;;;;;42.77;21.23;;;;;;;6.92;80.08;93824.91;5071068;28;20254;-78
2021/01/08 08:50:32;;;;;;;33.17;18.57;;;;;;;7.07;80.07;93802.84;5070786;28;20424;-78
2021/01/08 08:52:58;;;;;;;39.13;19.77;;;;;;;7.15;80.29;93823.09;5070796;28;20417;-77
2021/01/08 08:55:27;;;;;;;42.00;19.10;;;;;;;7.06;79.75;93819.88;5070706;28;20497;-76
2021/01/08 08:58:06;;;;;;;32.83;17.70;;;;;;;7.25;79.65;93805.88;5075776;28;20207;-80
2021/01/08 09:00:35;;;;;;;36.30;18.50;;;;;;;7.32;79.62;93821.94;5074278;28;20421;-78
2021/01/08 09:03:01;;;;;;;35.47;18.27;;;;;;;6.95;80.75;93813.56;5074445;28;20936;-78
2021/01/08 09:05:30;;;;;;;40.57;18.80;;;;;;;7.20;80.33;93790.97;5073996;28;20436;-77
2021/01/08 09:08:18;;;;;;;42.43;18.87;;;;;;;7.29;80.04;93790.75;5056485;28;20776;-79
2021/01/08 09:11:13;;;;;;;35.50;19.37;;;;;;;7.07;80.62;93813.44;5074315;28;20901;-78
2021/01/08 09:13:56;;;;;;;45.13;20.87;;;;;;;7.11;80.21;93801.78;5065806;28;20429;-79
2021/01/08 09:16:31;;;;;;;32.47;19.13;;;;;;;7.21;80.30;93779.22;5056383;28;20429;-79
2021/01/08 09:19:07;;;;;;;38.20;20.07;;;;;;;7.34;80.39;93814.38;5056591;28;20424;-79
2021/01/08 09:21:36;;;;;;;37.80;18.90;;;;;;;7.19;79.58;93807.25;5056303;28;21085;-76
2021/01/08 09:24:05;;;;;;;36.30;19.97;;;;;;;7.32;79.27;93788.16;5056364;28;20417;-78
2021/01/08 09:26:31;;;;;;;35.87;19.23;;;;;;;7.53;78.76;93790.47;5056441;28;20421;-78
2021/01/08 09:28:56;;;;;;;39.53;19.47;;;;;;;7.59;78.56;93804.22;5073634;28;20475;-79
2021/01/08 09:31:41;;;;;;;40.33;21.03;;;;;;;7.32;80.34;93785.53;5074839;28;20201;-78
2021/01/08 09:34:06;;;;;;;37.30;20.00;;;;;;;7.41;80.33;93785.31;5073706;28;20195;-78
2021/01/08 09:36:33;;;;;;;34.50;19.13;;;;;;;7.56;80.16;93797.72;5073709;28;20461;-79
2021/01/08 09:39:00;;;;;;;38.83;20.83;;;;;;;7.47;80.44;93796.41;5073490;28;20560;-78
2021/01/08 09:41:25;;;;;;;36.33;19.37;;;;;;;7.60;79.74;93768.56;5073575;28;20413;-77
2021/01/08 09:44:10;;;;;;;39.20;19.97;;;;;;;7.69;80.72;93769.13;5073482;28;20904;-78
2021/01/08 09:46:58;;;;;;;30.00;18.03;;;;;;;7.53;80.09;93801.09;5074047;28;20167;-78
2021/01/08 09:49:26;;;;;;;33.93;18.10;;;;;;;7.44;80.24;93766.00;5073639;28;20414;-78
2021/01/08 09:52:01;;;;;;;35.10;18.07;;;;;;;7.51;80.19;93776.00;5073453;28;20429;-77
2021/01/08 09:54:40;;;;;;;37.13;20.20;;;;;;;7.41;81.21;93766.72;5073887;28;20784;-78
2021/01/08 09:57:06;;;;;;;34.63;19.93;;;;;;;7.76;80.89;93745.31;5073140;28;20460;-78
2021/01/08 09:59:31;;;;;;;36.53;19.07;;;;;;;7.59;80.66;93761.72;5073453;28;20943;-78
2021/01/08 10:02:04;;;;;;;33.77;18.67;;;;;;;7.68;80.92;93739.09;5073227;28;20171;-74
2021/01/08 10:04:31;;;;;;;41.00;21.53;;;;;;;7.65;81.20;93750.44;5074336;28;20649;-80
2021/01/08 10:07:06;;;;;;;38.83;21.00;;;;;;;7.44;81.88;93736.78;5073462;28;20813;-78
2021/01/08 10:09:51;;;;;;;32.70;19.20;;;;;;;7.76;79.79;93723.31;5073232;28;20517;-80
2021/01/08 10:12:17;;;;;;;38.80;18.93;;;;;;;7.65;80.88;93723.88;5073209;28;20486;-77
2021/01/08 10:14:43;;;;;;;35.07;18.17;;;;;;;7.71;80.74;93726.25;5073119;28;20441;-79
2021/01/08 10:17:13;;;;;;;33.00;18.30;;;;;;;7.51;81.64;93731.59;5072576;28;20497;-78
2021/01/08 10:19:43;;;;;;;34.73;18.47;;;;;;;7.53;81.83;93697.50;5073488;28;20166;-78
2021/01/08 10:22:08;;;;;;;41.00;20.27;;;;;;;7.81;81.50;93725.66;5073509;28;20501;-76
2021/01/08 10:24:34;;;;;;;33.43;18.43;;;;;;;7.65;82.27;93710.59;5073053;28;20572;-78
2021/01/08 10:27:02;;;;;;;37.73;18.70;;;;;;;7.74;81.69;93696.28;5072953;28;20171;-79
2021/01/08 10:29:35;;;;;;;34.47;18.20;;;;;;;7.77;81.52;93698.25;5072458;28;20702;-79
2021/01/08 10:32:13;;;;;;;35.43;20.87;;;;;;;7.75;82.35;93721.78;5072630;28;20457;-79
2021/01/08 10:34:40;;;;;;;35.87;20.97;;;;;;;7.96;81.08;93688.28;5072735;28;20417;-78
2021/01/08 10:37:06;;;;;;;36.60;21.00;;;;;;;7.91;81.54;93699.25;5073795;28;20460;-76
2021/01/08 10:39:31;;;;;;;41.43;21.93;;;;;;;7.74;83.12;93697.06;5072716;28;20422;-79
2021/01/08 10:41:57;;;;;;;38.70;20.23;;;;;;;7.77;81.85;93692.94;5072549;28;20176;-78
2021/01/08 10:44:22;;;;;;;38.53;20.50;;;;;;;7.71;82.04;93705.00;5072153;28;20171;-79
2021/01/08 10:46:48;;;;;;;37.43;19.83;;;;;;;7.69;82.09;93682.22;5072391;28;20206;-78
2021/01/08 10:49:13;;;;;;;40.83;22.17;;;;;;;7.90;82.44;93691.63;5072131;28;20160;-78
2021/01/08 10:51:39;;;;;;;34.93;19.73;;;;;;;8.10;82.00;93677.13;5072345;28;20178;-78
2021/01/08 10:54:05;;;;;;;34.10;19.00;;;;;;;8.09;81.36;93672.94;5072717;28;20167;-78
2021/01/08 10:56:30;;;;;;;32.73;18.57;;;;;;;7.94;82.46;93679.16;5071942;28;20195;-76
2021/01/08 10:58:56;;;;;;;36.23;18.30;;;;;;;8.02;82.51;93677.38;5071762;28;20249;-75
2021/01/08 11:01:22;;;;;;;35.67;18.37;;;;;;;7.93;82.66;93682.94;5071870;28;20212;-74
2021/01/08 11:03:47;;;;;;;28.30;16.73;;;;;;;8.13;81.46;93663.09;5071930;28;20174;-78
2021/01/08 11:06:17;;;;;;;29.47;17.37;;;;;;;8.06;82.17;93675.53;5071616;28;20186;-78
2021/01/08 11:08:43;;;;;;;25.17;14.87;;;;;;;8.20;81.89;93649.91;5071936;28;20183;-74
2021/01/08 11:11:09;;;;;;;30.50;15.37;;;;;;;8.23;81.95;93662.47;5072015;28;20479;-75
2021/01/08 11:13:34;;;;;;;27.40;14.27;;;;;;;7.99;81.71;93659.47;5071798;28;20258;-74
2021/01/08 11:16:00;;;;;;;20.83;13.30;;;;;;;8.08;82.00;93650.13;5071461;28;20800;-75
2021/01/08 11:18:25;;;;;;;20.93;12.83;;;;;;;8.25;81.46;93632.88;5071737;28;20210;-75
2021/01/08 11:20:51;;;;;;;23.57;13.33;;;;;;;8.33;81.26;93623.09;5070914;28;20266;-75
2021/01/08 11:23:17;;;;;;;24.73;12.73;;;;;;;8.53;81.47;93637.03;5071582;28;20556;-76
2021/01/08 11:25:42;;;;;;;20.63;11.20;;;;;;;8.54;81.16;93615.41;5071618;28;20517;-75
2021/01/08 11:28:08;;;;;;;19.47;10.93;;;;;;;8.61;80.54;93610.16;5071770;28;20677;-77
2021/01/08 11:30:33;;;;;;;20.50;11.40;;;;;;;8.45;81.12;93614.91;5071492;28;20178;-76